Un Pendik — TCOD2 — position and weather

sailwx.info

Track history (hours):
 
Tides and Currents Weather Stations Pressure Air Temp Water Temp Dewpoint Dewpoint Depression Visibility Wind Speed Wind Dir Waves Ship Positions

Un Pendik

Last reported at 2016-Dec-04 03:30 UTC. Time now 2016-Dec-04 03:57 UTC.
Position N 38°13' E 024°49'.

Length 193 m; draft 6.9 m.

Type: Ship (hazmat cat A). MMSI: 271000792.

Date/timePositionNaut miles runAvg speedWind from/ knotsBaromVisibWave heightAir tempDewpointWater temp
2016-Dec-04 03:30N 38°13' E 024°49'1819.0
2016-Dec-04 02:33N 37°57' E 024°38'1918.7
2016-Dec-04 01:34N 37°39' E 024°29'1918.4
2016-Dec-04 00:32N 37°24' E 024°16'38817.3
2016-Dec-03 02:10N 37°47' E 016°07'1219.1
2016-Dec-03 01:32N 37°50' E 015°53'1717.7
2016-Dec-03 00:34N 37°60' E 015°34'1717.3
2016-Dec-02 23:33N 38°16' E 015°40'1817.7
2016-Dec-02 22:33N 38°29' E 015°25'1919.5
2016-Dec-02 21:33N 38°42' E 015°06'2019.8
2016-Dec-02 20:33N 38°52' E 014°44'47118.9
2016-Dec-01 19:34N 43°05' E 005°57'3 3.1
2016-Dec-01 18:31N 43°06' E 005°54'0 0.0
2016-Dec-01 17:33N 43°06' E 005°54'0 0.0
2016-Dec-01 16:33N 43°06' E 005°54'0 0.0
2016-Dec-01 15:33N 43°06' E 005°54'0 0.0
2016-Dec-01 14:32N 43°06' E 005°54'0 0.0
2016-Dec-01 13:32N 43°06' E 005°54'0 0.0
2016-Dec-01 12:31N 43°06' E 005°54'0 0.0
2016-Dec-01 11:31N 43°06' E 005°54'0 0.0
2016-Dec-01 10:33N 43°06' E 005°54'0 0.0
2016-Dec-01 09:31N 43°06' E 005°54'0 0.0
2016-Dec-01 08:31N 43°06' E 005°54'0 0.0
2016-Dec-01 07:34N 43°06' E 005°54'0 0.2
2016-Dec-01 06:34N 43°06' E 005°54'47518.2
2016-Nov-30 04:26N 38°52' E 014°46'1718.7
2016-Nov-30 03:33N 38°44' E 015°04'1918.7
2016-Nov-30 02:33N 38°32' E 015°23'1918.7
2016-Nov-30 01:33N 38°19' E 015°40'1313.3
2016-Nov-30 00:33N 38°07' E 015°36'1817.1
2016-Nov-29 23:30N 37°52' E 015°48'39416.4
2016-Nov-28 23:33N 37°29' E 024°05'1919.6
2016-Nov-28 22:33N 37°45' E 024°18'28017.5
2016-Nov-28 06:30N 40°52' E 028°48'1718.3
2016-Nov-28 05:33N 40°50' E 029°10'5 4.5
2016-Nov-28 04:33N 40°51' E 029°16'0 0.0
2016-Nov-28 03:32N 40°51' E 029°16'0 0.0
2016-Nov-28 02:26N 40°51' E 029°16'0 0.0
2016-Nov-28 01:31N 40°51' E 029°16'0 0.0
2016-Nov-28 00:31N 40°51' E 029°16'0 0.0
2016-Nov-27 23:30N 40°51' E 029°16'0 0.0
2016-Nov-27 22:24N 40°51' E 029°16'0 0.0
2016-Nov-27 21:29N 40°51' E 029°16'0 0.0
2016-Nov-27 20:17N 40°51' E 029°16'0 0.0
2016-Nov-27 19:29N 40°51' E 029°16'1 0.6
2016-Nov-27 18:33N 40°51' E 029°16'26616.5
2016-Nov-27 02:27N 38°06' E 024°45'1819.8
2016-Nov-27 01:33N 37°51' E 024°35'2519.3
2016-Nov-27 00:15N 37°29' E 024°20'1419.5
2016-Nov-26 23:33N 37°17' E 024°10'38717.6
2016-Nov-26 01:33N 37°47' E 016°04'1918.9
2016-Nov-26 00:33N 37°53' E 015°41'1717.1
2016-Nov-25 23:33N 38°09' E 015°34'1413.7
2016-Nov-25 22:33N 38°23' E 015°34'1919.3
2016-Nov-25 21:33N 38°36' E 015°16'1919.4
2016-Nov-25 20:33N 38°47' E 014°55'48518.6
2016-Nov-24 18:31N 43°06' E 005°54'0 0.0
2016-Nov-24 17:31N 43°06' E 005°54'0 0.0
2016-Nov-24 16:33N 43°06' E 005°54'0 0.0
2016-Nov-24 15:33N 43°06' E 005°54'0 0.0
2016-Nov-24 14:32N 43°06' E 005°54'0 0.0
2016-Nov-24 13:32N 43°06' E 005°54'0 0.0
2016-Nov-24 12:31N 43°06' E 005°54'0 0.0
2016-Nov-24 11:31N 43°06' E 005°54'0 0.0
2016-Nov-24 10:31N 43°06' E 005°54'0 0.0
2016-Nov-24 09:33N 43°06' E 005°54'0 0.0
2016-Nov-24 08:33N 43°06' E 005°54'0 0.0
2016-Nov-24 07:32N 43°06' E 005°54'2 2.0
2016-Nov-24 06:33N 43°05' E 005°56'  
Track history (hours):
 
Tides and Currents Weather Stations Pressure Air Temp Water Temp Dewpoint Dewpoint Depression Visibility Wind Speed Wind Dir Waves Ship Positions

Un Pendik

Last reported at 2016-Dec-04 03:30 UTC. Time now 2016-Dec-04 03:57 UTC.
Position N 38°13' E 024°49'.

Length 193 m; draft 6.9 m.

Type: Ship (hazmat cat A). MMSI: 271000792.

Date/timePositionNaut miles runAvg speedWind from/ knotsBaromVisibWave heightAir tempDewpointWater temp
2016-Dec-04 03:30N 38°13' E 024°49'1819.0
2016-Dec-04 02:33N 37°57' E 024°38'1918.7
2016-Dec-04 01:34N 37°39' E 024°29'1918.4
2016-Dec-04 00:32N 37°24' E 024°16'38817.3
2016-Dec-03 02:10N 37°47' E 016°07'1219.1
2016-Dec-03 01:32N 37°50' E 015°53'1717.7
2016-Dec-03 00:34N 37°60' E 015°34'1717.3
2016-Dec-02 23:33N 38°16' E 015°40'1817.7
2016-Dec-02 22:33N 38°29' E 015°25'1919.5
2016-Dec-02 21:33N 38°42' E 015°06'2019.8
2016-Dec-02 20:33N 38°52' E 014°44'47118.9
2016-Dec-01 19:34N 43°05' E 005°57'3 3.1
2016-Dec-01 18:31N 43°06' E 005°54'0 0.0
2016-Dec-01 17:33N 43°06' E 005°54'0 0.0
2016-Dec-01 16:33N 43°06' E 005°54'0 0.0
2016-Dec-01 15:33N 43°06' E 005°54'0 0.0
2016-Dec-01 14:32N 43°06' E 005°54'0 0.0
2016-Dec-01 13:32N 43°06' E 005°54'0 0.0
2016-Dec-01 12:31N 43°06' E 005°54'0 0.0
2016-Dec-01 11:31N 43°06' E 005°54'0 0.0
2016-Dec-01 10:33N 43°06' E 005°54'0 0.0
2016-Dec-01 09:31N 43°06' E 005°54'0 0.0
2016-Dec-01 08:31N 43°06' E 005°54'0 0.0
2016-Dec-01 07:34N 43°06' E 005°54'0 0.2
2016-Dec-01 06:34N 43°06' E 005°54'47518.2
2016-Nov-30 04:26N 38°52' E 014°46'1718.7
2016-Nov-30 03:33N 38°44' E 015°04'1918.7
2016-Nov-30 02:33N 38°32' E 015°23'1918.7
2016-Nov-30 01:33N 38°19' E 015°40'1313.3
2016-Nov-30 00:33N 38°07' E 015°36'1817.1
2016-Nov-29 23:30N 37°52' E 015°48'39416.4
2016-Nov-28 23:33N 37°29' E 024°05'1919.6
2016-Nov-28 22:33N 37°45' E 024°18'28017.5
2016-Nov-28 06:30N 40°52' E 028°48'1718.3
2016-Nov-28 05:33N 40°50' E 029°10'5 4.5
2016-Nov-28 04:33N 40°51' E 029°16'0 0.0
2016-Nov-28 03:32N 40°51' E 029°16'0 0.0
2016-Nov-28 02:26N 40°51' E 029°16'0 0.0
2016-Nov-28 01:31N 40°51' E 029°16'0 0.0
2016-Nov-28 00:31N 40°51' E 029°16'0 0.0
2016-Nov-27 23:30N 40°51' E 029°16'0 0.0
2016-Nov-27 22:24N 40°51' E 029°16'0 0.0
2016-Nov-27 21:29N 40°51' E 029°16'0 0.0
2016-Nov-27 20:17N 40°51' E 029°16'0 0.0
2016-Nov-27 19:29N 40°51' E 029°16'1 0.6
2016-Nov-27 18:33N 40°51' E 029°16'26616.5
2016-Nov-27 02:27N 38°06' E 024°45'1819.8
2016-Nov-27 01:33N 37°51' E 024°35'2519.3
2016-Nov-27 00:15N 37°29' E 024°20'1419.5
2016-Nov-26 23:33N 37°17' E 024°10'38717.6
2016-Nov-26 01:33N 37°47' E 016°04'1918.9
2016-Nov-26 00:33N 37°53' E 015°41'1717.1
2016-Nov-25 23:33N 38°09' E 015°34'1413.7
2016-Nov-25 22:33N 38°23' E 015°34'1919.3
2016-Nov-25 21:33N 38°36' E 015°16'1919.4
2016-Nov-25 20:33N 38°47' E 014°55'48518.6
2016-Nov-24 18:31N 43°06' E 005°54'0 0.0
2016-Nov-24 17:31N 43°06' E 005°54'0 0.0
2016-Nov-24 16:33N 43°06' E 005°54'0 0.0
2016-Nov-24 15:33N 43°06' E 005°54'0 0.0
2016-Nov-24 14:32N 43°06' E 005°54'0 0.0
2016-Nov-24 13:32N 43°06' E 005°54'0 0.0
2016-Nov-24 12:31N 43°06' E 005°54'0 0.0
2016-Nov-24 11:31N 43°06' E 005°54'0 0.0
2016-Nov-24 10:31N 43°06' E 005°54'0 0.0
2016-Nov-24 09:33N 43°06' E 005°54'0 0.0
2016-Nov-24 08:33N 43°06' E 005°54'0 0.0
2016-Nov-24 07:32N 43°06' E 005°54'2 2.0
2016-Nov-24 06:33N 43°05' E 005°56'  

Dump ship's entire track history